sensor_id;sensor_type;location;lat;lon;timestamp;P1;durP1;ratioP1;P2;durP2;ratioP2
6117;SDS011;3089;48.202;11.510;2023-12-14T00:01:21;3.17;;;0.80;;
6117;SDS011;3089;48.202;11.510;2023-12-14T00:03:49;2.30;;;1.07;;
6117;SDS011;3089;48.202;11.510;2023-12-14T00:06:17;2.93;;;0.80;;
6117;SDS011;3089;48.202;11.510;2023-12-14T00:08:46;2.10;;;0.70;;
6117;SDS011;3089;48.202;11.510;2023-12-14T00:11:15;2.07;;;0.83;;
6117;SDS011;3089;48.202;11.510;2023-12-14T00:13:43;1.70;;;0.53;;
6117;SDS011;3089;48.202;11.510;2023-12-14T00:16:11;2.20;;;0.87;;
6117;SDS011;3089;48.202;11.510;2023-12-14T00:18:39;2.87;;;0.90;;
6117;SDS011;3089;48.202;11.510;2023-12-14T00:21:07;2.37;;;0.70;;
6117;SDS011;3089;48.202;11.510;2023-12-14T00:23:35;3.63;;;0.90;;
6117;SDS011;3089;48.202;11.510;2023-12-14T00:26:05;2.17;;;0.67;;
6117;SDS011;3089;48.202;11.510;2023-12-14T00:28:33;2.30;;;0.80;;
6117;SDS011;3089;48.202;11.510;2023-12-14T00:31:01;2.23;;;0.80;;
6117;SDS011;3089;48.202;11.510;2023-12-14T00:33:29;2.03;;;0.80;;
6117;SDS011;3089;48.202;11.510;2023-12-14T00:35:58;7.33;;;0.80;;
6117;SDS011;3089;48.202;11.510;2023-12-14T00:38:26;1.80;;;0.70;;
6117;SDS011;3089;48.202;11.510;2023-12-14T00:40:54;2.10;;;0.70;;
6117;SDS011;3089;48.202;11.510;2023-12-14T00:43:23;2.00;;;0.90;;
6117;SDS011;3089;48.202;11.510;2023-12-14T00:45:51;2.80;;;1.00;;
6117;SDS011;3089;48.202;11.510;2023-12-14T00:48:20;2.17;;;0.70;;
6117;SDS011;3089;48.202;11.510;2023-12-14T00:50:48;2.40;;;1.00;;
6117;SDS011;3089;48.202;11.510;2023-12-14T00:53:16;2.20;;;0.80;;
6117;SDS011;3089;48.202;11.510;2023-12-14T00:55:44;2.03;;;0.83;;
6117;SDS011;3089;48.202;11.510;2023-12-14T00:58:12;2.07;;;0.80;;
6117;SDS011;3089;48.202;11.510;2023-12-14T01:00:41;2.20;;;0.80;;
6117;SDS011;3089;48.202;11.510;2023-12-14T01:03:09;2.30;;;0.80;;
6117;SDS011;3089;48.202;11.510;2023-12-14T01:05:37;6.10;;;1.10;;
6117;SDS011;3089;48.202;11.510;2023-12-14T01:08:05;2.20;;;0.97;;
6117;SDS011;3089;48.202;11.510;2023-12-14T01:10:34;1.90;;;0.77;;
6117;SDS011;3089;48.202;11.510;2023-12-14T01:13:02;3.10;;;0.80;;
6117;SDS011;3089;48.202;11.510;2023-12-14T01:15:30;2.50;;;0.90;;
6117;SDS011;3089;48.202;11.510;2023-12-14T01:18:00;2.00;;;0.70;;
6117;SDS011;3089;48.202;11.510;2023-12-14T01:20:28;2.80;;;1.00;;
6117;SDS011;3089;48.202;11.510;2023-12-14T01:22:56;2.63;;;0.80;;
6117;SDS011;3089;48.202;11.510;2023-12-14T01:25:24;2.73;;;1.13;;
6117;SDS011;3089;48.202;11.510;2023-12-14T01:27:52;1.90;;;0.70;;
6117;SDS011;3089;48.202;11.510;2023-12-14T01:30:20;2.00;;;0.63;;
6117;SDS011;3089;48.202;11.510;2023-12-14T01:32:48;2.13;;;0.60;;
6117;SDS011;3089;48.202;11.510;2023-12-14T01:35:18;2.10;;;0.80;;
6117;SDS011;3089;48.202;11.510;2023-12-14T01:37:46;1.90;;;0.60;;
6117;SDS011;3089;48.202;11.510;2023-12-14T01:40:14;2.93;;;0.90;;
6117;SDS011;3089;48.202;11.510;2023-12-14T01:42:46;2.20;;;0.80;;
6117;SDS011;3089;48.202;11.510;2023-12-14T01:45:14;2.17;;;0.70;;
6117;SDS011;3089;48.202;11.510;2023-12-14T01:47:42;1.90;;;0.77;;
6117;SDS011;3089;48.202;11.510;2023-12-14T01:50:11;1.83;;;0.70;;
6117;SDS011;3089;48.202;11.510;2023-12-14T01:52:40;2.17;;;0.80;;
6117;SDS011;3089;48.202;11.510;2023-12-14T01:55:08;2.47;;;0.60;;
6117;SDS011;3089;48.202;11.510;2023-12-14T01:57:36;1.90;;;0.63;;
6117;SDS011;3089;48.202;11.510;2023-12-14T02:00:05;1.80;;;0.60;;
6117;SDS011;3089;48.202;11.510;2023-12-14T02:02:34;1.77;;;0.60;;
6117;SDS011;3089;48.202;11.510;2023-12-14T02:05:04;1.90;;;0.50;;
6117;SDS011;3089;48.202;11.510;2023-12-14T02:07:32;1.80;;;0.53;;
6117;SDS011;3089;48.202;11.510;2023-12-14T02:10:02;1.70;;;0.60;;
6117;SDS011;3089;48.202;11.510;2023-12-14T02:12:30;2.30;;;0.73;;
6117;SDS011;3089;48.202;11.510;2023-12-14T02:15:00;2.00;;;0.90;;
6117;SDS011;3089;48.202;11.510;2023-12-14T02:17:28;2.23;;;0.80;;
6117;SDS011;3089;48.202;11.510;2023-12-14T02:19:56;2.93;;;0.73;;
6117;SDS011;3089;48.202;11.510;2023-12-14T02:22:26;1.60;;;0.50;;
6117;SDS011;3089;48.202;11.510;2023-12-14T02:24:55;1.73;;;0.57;;
6117;SDS011;3089;48.202;11.510;2023-12-14T02:27:23;2.60;;;0.80;;
6117;SDS011;3089;48.202;11.510;2023-12-14T02:29:51;3.60;;;0.60;;
6117;SDS011;3089;48.202;11.510;2023-12-14T02:32:19;1.80;;;0.60;;
6117;SDS011;3089;48.202;11.510;2023-12-14T02:34:51;1.80;;;0.60;;
6117;SDS011;3089;48.202;11.510;2023-12-14T02:37:19;2.10;;;0.70;;
6117;SDS011;3089;48.202;11.510;2023-12-14T02:39:47;2.30;;;1.00;;
6117;SDS011;3089;48.202;11.510;2023-12-14T02:42:16;2.50;;;0.90;;
6117;SDS011;3089;48.202;11.510;2023-12-14T02:44:44;2.27;;;0.90;;
6117;SDS011;3089;48.202;11.510;2023-12-14T02:47:12;3.30;;;1.27;;
6117;SDS011;3089;48.202;11.510;2023-12-14T02:49:40;2.47;;;1.00;;
6117;SDS011;3089;48.202;11.510;2023-12-14T02:52:08;2.30;;;0.90;;
6117;SDS011;3089;48.202;11.510;2023-12-14T02:54:38;2.47;;;1.13;;
6117;SDS011;3089;48.202;11.510;2023-12-14T02:57:06;2.83;;;1.23;;
6117;SDS011;3089;48.202;11.510;2023-12-14T02:59:36;2.60;;;1.20;;
6117;SDS011;3089;48.202;11.510;2023-12-14T03:02:04;3.43;;;1.80;;
6117;SDS011;3089;48.202;11.510;2023-12-14T03:04:32;2.87;;;1.33;;
6117;SDS011;3089;48.202;11.510;2023-12-14T03:07:00;2.87;;;1.50;;
6117;SDS011;3089;48.202;11.510;2023-12-14T03:09:29;2.90;;;1.30;;
6117;SDS011;3089;48.202;11.510;2023-12-14T03:11:57;2.90;;;1.40;;
6117;SDS011;3089;48.202;11.510;2023-12-14T03:14:25;4.17;;;1.87;;
6117;SDS011;3089;48.202;11.510;2023-12-14T03:16:54;3.27;;;1.70;;
6117;SDS011;3089;48.202;11.510;2023-12-14T03:19:22;3.67;;;2.03;;
6117;SDS011;3089;48.202;11.510;2023-12-14T03:21:50;4.47;;;2.13;;
6117;SDS011;3089;48.202;11.510;2023-12-14T03:24:18;2.77;;;1.20;;
6117;SDS011;3089;48.202;11.510;2023-12-14T03:26:46;4.23;;;2.20;;
6117;SDS011;3089;48.202;11.510;2023-12-14T03:29:14;4.30;;;1.80;;
6117;SDS011;3089;48.202;11.510;2023-12-14T03:31:42;4.40;;;2.50;;
6117;SDS011;3089;48.202;11.510;2023-12-14T03:34:12;3.70;;;1.77;;
6117;SDS011;3089;48.202;11.510;2023-12-14T03:36:40;4.27;;;2.10;;
6117;SDS011;3089;48.202;11.510;2023-12-14T03:39:08;4.57;;;2.10;;
6117;SDS011;3089;48.202;11.510;2023-12-14T03:41:36;4.67;;;2.37;;
6117;SDS011;3089;48.202;11.510;2023-12-14T03:44:04;2.80;;;1.50;;
6117;SDS011;3089;48.202;11.510;2023-12-14T03:46:32;3.40;;;1.70;;
6117;SDS011;3089;48.202;11.510;2023-12-14T03:49:01;4.20;;;1.83;;
6117;SDS011;3089;48.202;11.510;2023-12-14T03:51:31;2.80;;;1.53;;
6117;SDS011;3089;48.202;11.510;2023-12-14T03:53:59;3.70;;;1.70;;
6117;SDS011;3089;48.202;11.510;2023-12-14T03:56:27;3.63;;;1.80;;
6117;SDS011;3089;48.202;11.510;2023-12-14T03:58:55;3.60;;;2.00;;
6117;SDS011;3089;48.202;11.510;2023-12-14T04:01:23;3.20;;;1.47;;
6117;SDS011;3089;48.202;11.510;2023-12-14T04:03:51;3.30;;;1.33;;
6117;SDS011;3089;48.202;11.510;2023-12-14T04:06:19;3.67;;;1.60;;
6117;SDS011;3089;48.202;11.510;2023-12-14T04:08:49;2.70;;;1.30;;
6117;SDS011;3089;48.202;11.510;2023-12-14T04:11:16;4.00;;;1.73;;
6117;SDS011;3089;48.202;11.510;2023-12-14T04:13:44;2.97;;;1.57;;
6117;SDS011;3089;48.202;11.510;2023-12-14T04:16:18;3.30;;;1.70;;
6117;SDS011;3089;48.202;11.510;2023-12-14T04:18:51;3.13;;;1.37;;
6117;SDS011;3089;48.202;11.510;2023-12-14T04:21:19;3.13;;;1.33;;
6117;SDS011;3089;48.202;11.510;2023-12-14T04:23:48;2.90;;;1.37;;
6117;SDS011;3089;48.202;11.510;2023-12-14T04:26:16;3.40;;;1.30;;
6117;SDS011;3089;48.202;11.510;2023-12-14T04:28:44;2.67;;;1.10;;
6117;SDS011;3089;48.202;11.510;2023-12-14T04:31:13;2.70;;;1.07;;
6117;SDS011;3089;48.202;11.510;2023-12-14T04:33:41;3.87;;;1.67;;
6117;SDS011;3089;48.202;11.510;2023-12-14T04:36:09;2.90;;;1.40;;
6117;SDS011;3089;48.202;11.510;2023-12-14T04:38:37;3.03;;;1.27;;
6117;SDS011;3089;48.202;11.510;2023-12-14T04:41:06;2.13;;;0.90;;
6117;SDS011;3089;48.202;11.510;2023-12-14T04:43:34;2.73;;;1.13;;
6117;SDS011;3089;48.202;11.510;2023-12-14T04:46:02;2.40;;;1.23;;
6117;SDS011;3089;48.202;11.510;2023-12-14T04:48:32;2.73;;;1.13;;
6117;SDS011;3089;48.202;11.510;2023-12-14T04:51:00;3.20;;;1.10;;
6117;SDS011;3089;48.202;11.510;2023-12-14T04:53:28;2.40;;;0.90;;
6117;SDS011;3089;48.202;11.510;2023-12-14T04:55:56;2.47;;;1.00;;
6117;SDS011;3089;48.202;11.510;2023-12-14T04:58:25;2.47;;;1.00;;
6117;SDS011;3089;48.202;11.510;2023-12-14T05:00:53;2.33;;;0.93;;
6117;SDS011;3089;48.202;11.510;2023-12-14T05:03:21;2.17;;;0.80;;
6117;SDS011;3089;48.202;11.510;2023-12-14T05:05:49;2.30;;;0.90;;
6117;SDS011;3089;48.202;11.510;2023-12-14T05:08:17;2.30;;;0.80;;
6117;SDS011;3089;48.202;11.510;2023-12-14T05:10:45;2.30;;;0.90;;
6117;SDS011;3089;48.202;11.510;2023-12-14T05:13:13;2.40;;;1.00;;
6117;SDS011;3089;48.202;11.510;2023-12-14T05:15:42;2.73;;;0.97;;
6117;SDS011;3089;48.202;11.510;2023-12-14T05:18:10;3.87;;;1.07;;
6117;SDS011;3089;48.202;11.510;2023-12-14T05:20:38;3.13;;;1.30;;
6117;SDS011;3089;48.202;11.510;2023-12-14T05:23:06;3.40;;;1.23;;
6117;SDS011;3089;48.202;11.510;2023-12-14T05:25:35;2.63;;;1.03;;
6117;SDS011;3089;48.202;11.510;2023-12-14T05:28:03;2.70;;;1.00;;
6117;SDS011;3089;48.202;11.510;2023-12-14T05:30:31;4.27;;;1.50;;
6117;SDS011;3089;48.202;11.510;2023-12-14T05:33:00;2.40;;;1.10;;
6117;SDS011;3089;48.202;11.510;2023-12-14T05:35:28;2.67;;;1.10;;
6117;SDS011;3089;48.202;11.510;2023-12-14T05:37:56;2.83;;;1.30;;
6117;SDS011;3089;48.202;11.510;2023-12-14T05:40:24;2.47;;;1.00;;
6117;SDS011;3089;48.202;11.510;2023-12-14T05:42:52;2.70;;;1.10;;
6117;SDS011;3089;48.202;11.510;2023-12-14T05:45:20;3.10;;;1.27;;
6117;SDS011;3089;48.202;11.510;2023-12-14T05:47:48;2.67;;;1.20;;
6117;SDS011;3089;48.202;11.510;2023-12-14T05:50:18;2.47;;;1.00;;
6117;SDS011;3089;48.202;11.510;2023-12-14T05:52:48;4.27;;;1.60;;
6117;SDS011;3089;48.202;11.510;2023-12-14T05:55:17;2.43;;;1.10;;
6117;SDS011;3089;48.202;11.510;2023-12-14T05:57:47;3.07;;;1.37;;
6117;SDS011;3089;48.202;11.510;2023-12-14T06:00:17;3.73;;;1.13;;
6117;SDS011;3089;48.202;11.510;2023-12-14T06:02:45;3.37;;;1.40;;
6117;SDS011;3089;48.202;11.510;2023-12-14T06:05:13;2.43;;;1.10;;
6117;SDS011;3089;48.202;11.510;2023-12-14T06:07:43;2.70;;;1.27;;
6117;SDS011;3089;48.202;11.510;2023-12-14T06:10:11;3.53;;;1.67;;
6117;SDS011;3089;48.202;11.510;2023-12-14T06:12:39;3.60;;;1.40;;
6117;SDS011;3089;48.202;11.510;2023-12-14T06:15:07;2.97;;;1.53;;
6117;SDS011;3089;48.202;11.510;2023-12-14T06:17:37;3.90;;;1.77;;
6117;SDS011;3089;48.202;11.510;2023-12-14T06:20:06;3.07;;;1.53;;
6117;SDS011;3089;48.202;11.510;2023-12-14T06:22:35;4.77;;;1.90;;
6117;SDS011;3089;48.202;11.510;2023-12-14T06:25:05;3.10;;;1.47;;
6117;SDS011;3089;48.202;11.510;2023-12-14T06:27:33;4.10;;;1.40;;
6117;SDS011;3089;48.202;11.510;2023-12-14T06:30:01;3.50;;;1.30;;
6117;SDS011;3089;48.202;11.510;2023-12-14T06:32:30;4.57;;;2.10;;
6117;SDS011;3089;48.202;11.510;2023-12-14T06:34:58;3.10;;;1.30;;
6117;SDS011;3089;48.202;11.510;2023-12-14T06:37:26;4.00;;;1.97;;
6117;SDS011;3089;48.202;11.510;2023-12-14T06:39:54;3.47;;;1.70;;
6117;SDS011;3089;48.202;11.510;2023-12-14T06:42:23;3.67;;;1.30;;
6117;SDS011;3089;48.202;11.510;2023-12-14T06:44:53;3.40;;;1.53;;
6117;SDS011;3089;48.202;11.510;2023-12-14T06:47:21;3.43;;;1.80;;
6117;SDS011;3089;48.202;11.510;2023-12-14T06:49:49;4.20;;;1.43;;
6117;SDS011;3089;48.202;11.510;2023-12-14T06:52:17;3.70;;;1.80;;
6117;SDS011;3089;48.202;11.510;2023-12-14T06:54:45;4.40;;;2.07;;
6117;SDS011;3089;48.202;11.510;2023-12-14T06:57:13;5.00;;;1.90;;
6117;SDS011;3089;48.202;11.510;2023-12-14T06:59:43;4.00;;;1.83;;
6117;SDS011;3089;48.202;11.510;2023-12-14T07:02:11;3.93;;;1.67;;
6117;SDS011;3089;48.202;11.510;2023-12-14T07:04:39;4.10;;;1.60;;
6117;SDS011;3089;48.202;11.510;2023-12-14T07:07:06;5.27;;;1.73;;
6117;SDS011;3089;48.202;11.510;2023-12-14T07:09:34;4.37;;;2.10;;
6117;SDS011;3089;48.202;11.510;2023-12-14T07:12:03;4.57;;;2.00;;
6117;SDS011;3089;48.202;11.510;2023-12-14T07:14:31;5.73;;;2.40;;
6117;SDS011;3089;48.202;11.510;2023-12-14T07:17:00;7.53;;;2.97;;
6117;SDS011;3089;48.202;11.510;2023-12-14T07:19:28;6.23;;;2.70;;
6117;SDS011;3089;48.202;11.510;2023-12-14T07:21:56;4.13;;;1.83;;
6117;SDS011;3089;48.202;11.510;2023-12-14T07:24:24;3.50;;;1.80;;
6117;SDS011;3089;48.202;11.510;2023-12-14T07:26:51;5.10;;;2.63;;
6117;SDS011;3089;48.202;11.510;2023-12-14T07:29:19;6.33;;;2.53;;
6117;SDS011;3089;48.202;11.510;2023-12-14T07:31:47;4.50;;;2.33;;
6117;SDS011;3089;48.202;11.510;2023-12-14T07:34:17;5.03;;;2.53;;
6117;SDS011;3089;48.202;11.510;2023-12-14T07:36:46;5.67;;;2.60;;
6117;SDS011;3089;48.202;11.510;2023-12-14T07:39:14;4.07;;;2.07;;
6117;SDS011;3089;48.202;11.510;2023-12-14T07:41:42;6.10;;;2.37;;
6117;SDS011;3089;48.202;11.510;2023-12-14T07:44:10;4.23;;;2.23;;
6117;SDS011;3089;48.202;11.510;2023-12-14T07:46:38;5.27;;;2.60;;
6117;SDS011;3089;48.202;11.510;2023-12-14T07:49:08;6.10;;;2.40;;
6117;SDS011;3089;48.202;11.510;2023-12-14T07:51:38;5.20;;;2.73;;
6117;SDS011;3089;48.202;11.510;2023-12-14T07:54:06;5.30;;;2.67;;
6117;SDS011;3089;48.202;11.510;2023-12-14T07:56:34;5.40;;;3.00;;
6117;SDS011;3089;48.202;11.510;2023-12-14T07:59:01;4.47;;;2.77;;
6117;SDS011;3089;48.202;11.510;2023-12-14T08:01:32;6.23;;;2.73;;
6117;SDS011;3089;48.202;11.510;2023-12-14T08:04:01;6.97;;;2.97;;
6117;SDS011;3089;48.202;11.510;2023-12-14T08:06:30;6.93;;;3.30;;
6117;SDS011;3089;48.202;11.510;2023-12-14T08:08:59;8.10;;;3.27;;
6117;SDS011;3089;48.202;11.510;2023-12-14T08:11:27;8.87;;;4.00;;
6117;SDS011;3089;48.202;11.510;2023-12-14T08:13:55;7.30;;;2.83;;
6117;SDS011;3089;48.202;11.510;2023-12-14T08:16:23;6.17;;;3.60;;
6117;SDS011;3089;48.202;11.510;2023-12-14T08:18:51;6.33;;;3.30;;
6117;SDS011;3089;48.202;11.510;2023-12-14T08:21:19;8.60;;;3.40;;
6117;SDS011;3089;48.202;11.510;2023-12-14T08:23:47;6.70;;;3.77;;
6117;SDS011;3089;48.202;11.510;2023-12-14T08:26:16;6.17;;;3.93;;
6117;SDS011;3089;48.202;11.510;2023-12-14T08:28:44;8.93;;;3.67;;
6117;SDS011;3089;48.202;11.510;2023-12-14T08:31:13;7.07;;;3.90;;
6117;SDS011;3089;48.202;11.510;2023-12-14T08:33:41;5.80;;;3.10;;
6117;SDS011;3089;48.202;11.510;2023-12-14T08:36:14;6.67;;;3.80;;
6117;SDS011;3089;48.202;11.510;2023-12-14T08:38:43;7.30;;;3.57;;
6117;SDS011;3089;48.202;11.510;2023-12-14T08:41:11;6.27;;;3.80;;
6117;SDS011;3089;48.202;11.510;2023-12-14T08:43:42;7.67;;;3.67;;
6117;SDS011;3089;48.202;11.510;2023-12-14T08:46:10;7.07;;;3.57;;
6117;SDS011;3089;48.202;11.510;2023-12-14T08:48:38;7.73;;;3.37;;
6117;SDS011;3089;48.202;11.510;2023-12-14T08:51:06;9.10;;;4.00;;
6117;SDS011;3089;48.202;11.510;2023-12-14T08:53:34;8.43;;;3.87;;
6117;SDS011;3089;48.202;11.510;2023-12-14T08:56:02;7.23;;;3.37;;
6117;SDS011;3089;48.202;11.510;2023-12-14T08:58:30;7.57;;;3.43;;
6117;SDS011;3089;48.202;11.510;2023-12-14T09:00:59;5.80;;;3.23;;
6117;SDS011;3089;48.202;11.510;2023-12-14T09:03:27;10.17;;;4.60;;
6117;SDS011;3089;48.202;11.510;2023-12-14T09:05:55;10.30;;;4.73;;
6117;SDS011;3089;48.202;11.510;2023-12-14T09:08:24;7.70;;;3.27;;
6117;SDS011;3089;48.202;11.510;2023-12-14T09:10:53;7.33;;;3.33;;
6117;SDS011;3089;48.202;11.510;2023-12-14T09:13:21;4.90;;;3.23;;
6117;SDS011;3089;48.202;11.510;2023-12-14T09:15:48;7.47;;;3.80;;
6117;SDS011;3089;48.202;11.510;2023-12-14T09:18:20;10.10;;;4.40;;
6117;SDS011;3089;48.202;11.510;2023-12-14T09:20:49;6.50;;;3.80;;
6117;SDS011;3089;48.202;11.510;2023-12-14T09:23:17;8.60;;;3.70;;
6117;SDS011;3089;48.202;11.510;2023-12-14T09:25:46;6.17;;;3.70;;
6117;SDS011;3089;48.202;11.510;2023-12-14T09:28:14;56.73;;;17.03;;
6117;SDS011;3089;48.202;11.510;2023-12-14T09:30:42;7.73;;;3.50;;
6117;SDS011;3089;48.202;11.510;2023-12-14T09:33:11;6.10;;;3.07;;
6117;SDS011;3089;48.202;11.510;2023-12-14T09:35:40;6.30;;;3.40;;
6117;SDS011;3089;48.202;11.510;2023-12-14T09:38:08;6.37;;;3.70;;
6117;SDS011;3089;48.202;11.510;2023-12-14T09:40:39;6.37;;;3.20;;
6117;SDS011;3089;48.202;11.510;2023-12-14T09:43:07;6.47;;;3.10;;
6117;SDS011;3089;48.202;11.510;2023-12-14T09:45:35;6.30;;;3.23;;
6117;SDS011;3089;48.202;11.510;2023-12-14T09:48:07;6.13;;;3.40;;
6117;SDS011;3089;48.202;11.510;2023-12-14T09:50:38;6.33;;;3.07;;
6117;SDS011;3089;48.202;11.510;2023-12-14T09:53:08;6.73;;;3.83;;
6117;SDS011;3089;48.202;11.510;2023-12-14T09:55:36;6.77;;;3.80;;
6117;SDS011;3089;48.202;11.510;2023-12-14T09:58:04;8.47;;;2.87;;
6117;SDS011;3089;48.202;11.510;2023-12-14T10:00:36;4.87;;;2.80;;
6117;SDS011;3089;48.202;11.510;2023-12-14T10:03:17;7.53;;;3.60;;
6117;SDS011;3089;48.202;11.510;2023-12-14T10:05:48;6.97;;;3.73;;
6117;SDS011;3089;48.202;11.510;2023-12-14T10:08:16;7.67;;;4.00;;
6117;SDS011;3089;48.202;11.510;2023-12-14T10:10:45;7.50;;;3.77;;
6117;SDS011;3089;48.202;11.510;2023-12-14T10:13:17;7.13;;;4.10;;
6117;SDS011;3089;48.202;11.510;2023-12-14T10:15:46;5.73;;;3.40;;
6117;SDS011;3089;48.202;11.510;2023-12-14T10:18:19;7.43;;;3.57;;
6117;SDS011;3089;48.202;11.510;2023-12-14T10:20:52;7.07;;;4.00;;
6117;SDS011;3089;48.202;11.510;2023-12-14T10:23:20;5.67;;;2.90;;
6117;SDS011;3089;48.202;11.510;2023-12-14T10:25:48;8.30;;;2.67;;
6117;SDS011;3089;48.202;11.510;2023-12-14T10:28:16;4.20;;;2.00;;
6117;SDS011;3089;48.202;11.510;2023-12-14T10:30:44;3.40;;;1.47;;
6117;SDS011;3089;48.202;11.510;2023-12-14T10:33:12;3.23;;;1.20;;
6117;SDS011;3089;48.202;11.510;2023-12-14T10:35:40;3.07;;;1.37;;
6117;SDS011;3089;48.202;11.510;2023-12-14T10:38:13;3.37;;;1.40;;
6117;SDS011;3089;48.202;11.510;2023-12-14T10:40:44;3.30;;;1.17;;
6117;SDS011;3089;48.202;11.510;2023-12-14T10:43:12;2.93;;;1.37;;
6117;SDS011;3089;48.202;11.510;2023-12-14T10:46:03;3.03;;;1.30;;
6117;SDS011;3089;48.202;11.510;2023-12-14T10:48:34;3.50;;;1.50;;
6117;SDS011;3089;48.202;11.510;2023-12-14T10:51:02;5.10;;;2.30;;
6117;SDS011;3089;48.202;11.510;2023-12-14T10:53:33;4.87;;;2.10;;
6117;SDS011;3089;48.202;11.510;2023-12-14T10:56:02;6.17;;;3.27;;
6117;SDS011;3089;48.202;11.510;2023-12-14T10:58:45;5.20;;;2.83;;
6117;SDS011;3089;48.202;11.510;2023-12-14T11:01:15;6.27;;;3.13;;
6117;SDS011;3089;48.202;11.510;2023-12-14T11:03:43;5.17;;;2.47;;
6117;SDS011;3089;48.202;11.510;2023-12-14T11:06:19;5.30;;;3.00;;
6117;SDS011;3089;48.202;11.510;2023-12-14T11:08:51;7.30;;;3.53;;
6117;SDS011;3089;48.202;11.510;2023-12-14T11:11:21;4.57;;;2.73;;
6117;SDS011;3089;48.202;11.510;2023-12-14T11:13:50;6.40;;;3.30;;
6117;SDS011;3089;48.202;11.510;2023-12-14T11:16:20;9.67;;;3.27;;
6117;SDS011;3089;48.202;11.510;2023-12-14T11:18:49;13.57;;;4.30;;
6117;SDS011;3089;48.202;11.510;2023-12-14T11:22:11;6.40;;;3.43;;
6117;SDS011;3089;48.202;11.510;2023-12-14T11:24:45;4.73;;;2.90;;
6117;SDS011;3089;48.202;11.510;2023-12-14T11:27:19;7.27;;;3.20;;
6117;SDS011;3089;48.202;11.510;2023-12-14T11:29:52;5.13;;;2.60;;
6117;SDS011;3089;48.202;11.510;2023-12-14T11:32:20;6.63;;;3.20;;
6117;SDS011;3089;48.202;11.510;2023-12-14T11:34:48;5.00;;;2.50;;
6117;SDS011;3089;48.202;11.510;2023-12-14T11:37:16;5.43;;;2.60;;
6117;SDS011;3089;48.202;11.510;2023-12-14T11:39:46;5.20;;;2.17;;
6117;SDS011;3089;48.202;11.510;2023-12-14T11:42:17;5.40;;;2.97;;
6117;SDS011;3089;48.202;11.510;2023-12-14T11:44:46;6.10;;;1.80;;
6117;SDS011;3089;48.202;11.510;2023-12-14T11:47:14;3.20;;;1.57;;
6117;SDS011;3089;48.202;11.510;2023-12-14T11:49:42;3.00;;;1.53;;
6117;SDS011;3089;48.202;11.510;2023-12-14T11:52:10;3.80;;;1.90;;
6117;SDS011;3089;48.202;11.510;2023-12-14T11:54:38;3.20;;;1.50;;
6117;SDS011;3089;48.202;11.510;2023-12-14T11:57:08;5.13;;;2.07;;
6117;SDS011;3089;48.202;11.510;2023-12-14T11:59:36;3.60;;;1.93;;
6117;SDS011;3089;48.202;11.510;2023-12-14T12:02:04;4.63;;;2.13;;
6117;SDS011;3089;48.202;11.510;2023-12-14T12:04:32;4.00;;;1.80;;
6117;SDS011;3089;48.202;11.510;2023-12-14T12:07:02;3.13;;;1.63;;
6117;SDS011;3089;48.202;11.510;2023-12-14T12:09:34;3.30;;;1.40;;
6117;SDS011;3089;48.202;11.510;2023-12-14T12:12:08;8.93;;;2.23;;
6117;SDS011;3089;48.202;11.510;2023-12-14T12:14:37;5.03;;;2.47;;
6117;SDS011;3089;48.202;11.510;2023-12-14T12:17:06;3.93;;;1.60;;
6117;SDS011;3089;48.202;11.510;2023-12-14T12:19:35;2.83;;;1.40;;
6117;SDS011;3089;48.202;11.510;2023-12-14T12:22:04;4.27;;;1.87;;
6117;SDS011;3089;48.202;11.510;2023-12-14T12:24:32;3.17;;;1.37;;
6117;SDS011;3089;48.202;11.510;2023-12-14T12:27:00;2.77;;;1.40;;
6117;SDS011;3089;48.202;11.510;2023-12-14T12:29:29;3.37;;;1.23;;
6117;SDS011;3089;48.202;11.510;2023-12-14T12:31:58;11.73;;;2.40;;
6117;SDS011;3089;48.202;11.510;2023-12-14T12:34:26;8.83;;;2.87;;
6117;SDS011;3089;48.202;11.510;2023-12-14T12:36:54;3.00;;;1.27;;
6117;SDS011;3089;48.202;11.510;2023-12-14T12:39:24;5.10;;;2.27;;
6117;SDS011;3089;48.202;11.510;2023-12-14T12:41:51;3.37;;;1.40;;
6117;SDS011;3089;48.202;11.510;2023-12-14T12:44:19;7.00;;;2.63;;
6117;SDS011;3089;48.202;11.510;2023-12-14T12:46:49;4.50;;;1.70;;
6117;SDS011;3089;48.202;11.510;2023-12-14T12:49:33;3.57;;;1.27;;
6117;SDS011;3089;48.202;11.510;2023-12-14T12:52:02;3.23;;;1.30;;
6117;SDS011;3089;48.202;11.510;2023-12-14T12:54:30;4.85;;;2.83;;
6117;SDS011;3089;48.202;11.510;2023-12-14T12:56:59;10.13;;;3.77;;
6117;SDS011;3089;48.202;11.510;2023-12-14T12:59:27;6.73;;;2.97;;
6117;SDS011;3089;48.202;11.510;2023-12-14T13:01:56;4.17;;;1.80;;
6117;SDS011;3089;48.202;11.510;2023-12-14T13:04:24;4.50;;;1.93;;
6117;SDS011;3089;48.202;11.510;2023-12-14T13:06:53;3.40;;;1.70;;
6117;SDS011;3089;48.202;11.510;2023-12-14T13:09:21;5.33;;;2.30;;
6117;SDS011;3089;48.202;11.510;2023-12-14T13:11:49;3.50;;;1.63;;
6117;SDS011;3089;48.202;11.510;2023-12-14T13:14:17;4.20;;;1.97;;
6117;SDS011;3089;48.202;11.510;2023-12-14T13:16:45;3.77;;;1.50;;
6117;SDS011;3089;48.202;11.510;2023-12-14T13:19:15;4.33;;;1.90;;
6117;SDS011;3089;48.202;11.510;2023-12-14T13:21:43;4.30;;;1.83;;
6117;SDS011;3089;48.202;11.510;2023-12-14T13:24:11;6.17;;;2.20;;
6117;SDS011;3089;48.202;11.510;2023-12-14T13:26:39;3.57;;;1.90;;
6117;SDS011;3089;48.202;11.510;2023-12-14T13:29:07;10.83;;;1.93;;
6117;SDS011;3089;48.202;11.510;2023-12-14T13:31:36;4.50;;;2.03;;
6117;SDS011;3089;48.202;11.510;2023-12-14T13:34:04;4.00;;;1.90;;
6117;SDS011;3089;48.202;11.510;2023-12-14T13:36:34;3.50;;;1.47;;
6117;SDS011;3089;48.202;11.510;2023-12-14T13:39:02;4.10;;;1.60;;
6117;SDS011;3089;48.202;11.510;2023-12-14T13:41:30;4.03;;;1.57;;
6117;SDS011;3089;48.202;11.510;2023-12-14T13:44:15;2.90;;;1.10;;
6117;SDS011;3089;48.202;11.510;2023-12-14T13:46:43;3.23;;;1.40;;
6117;SDS011;3089;48.202;11.510;2023-12-14T13:49:11;3.90;;;1.70;;
6117;SDS011;3089;48.202;11.510;2023-12-14T13:51:41;4.13;;;1.60;;
6117;SDS011;3089;48.202;11.510;2023-12-14T13:54:09;4.20;;;1.70;;
6117;SDS011;3089;48.202;11.510;2023-12-14T13:56:37;2.73;;;1.30;;
6117;SDS011;3089;48.202;11.510;2023-12-14T13:59:06;2.73;;;1.10;;
6117;SDS011;3089;48.202;11.510;2023-12-14T14:01:34;3.10;;;1.40;;
6117;SDS011;3089;48.202;11.510;2023-12-14T14:04:02;3.83;;;1.87;;
6117;SDS011;3089;48.202;11.510;2023-12-14T14:06:30;2.43;;;1.23;;
6117;SDS011;3089;48.202;11.510;2023-12-14T14:09:00;3.77;;;1.73;;
6117;SDS011;3089;48.202;11.510;2023-12-14T14:11:28;7.53;;;1.93;;
6117;SDS011;3089;48.202;11.510;2023-12-14T14:13:56;6.30;;;1.63;;
6117;SDS011;3089;48.202;11.510;2023-12-14T14:16:24;5.63;;;1.70;;
6117;SDS011;3089;48.202;11.510;2023-12-14T14:18:52;2.83;;;1.30;;
6117;SDS011;3089;48.202;11.510;2023-12-14T14:21:20;4.37;;;1.67;;
6117;SDS011;3089;48.202;11.510;2023-12-14T14:23:49;4.80;;;2.27;;
6117;SDS011;3089;48.202;11.510;2023-12-14T14:26:18;3.53;;;1.60;;
6117;SDS011;3089;48.202;11.510;2023-12-14T14:28:47;2.63;;;1.30;;
6117;SDS011;3089;48.202;11.510;2023-12-14T14:31:15;4.17;;;1.77;;
6117;SDS011;3089;48.202;11.510;2023-12-14T14:33:43;3.93;;;1.47;;
6117;SDS011;3089;48.202;11.510;2023-12-14T14:36:13;4.10;;;1.63;;
6117;SDS011;3089;48.202;11.510;2023-12-14T14:38:41;3.90;;;1.40;;
6117;SDS011;3089;48.202;11.510;2023-12-14T14:41:09;2.83;;;1.40;;
6117;SDS011;3089;48.202;11.510;2023-12-14T14:43:38;5.70;;;1.93;;
6117;SDS011;3089;48.202;11.510;2023-12-14T14:46:06;4.10;;;1.80;;
6117;SDS011;3089;48.202;11.510;2023-12-14T14:48:34;4.73;;;1.63;;
6117;SDS011;3089;48.202;11.510;2023-12-14T14:51:04;3.73;;;1.83;;
6117;SDS011;3089;48.202;11.510;2023-12-14T14:53:35;6.37;;;1.90;;
6117;SDS011;3089;48.202;11.510;2023-12-14T14:56:04;3.90;;;1.80;;
6117;SDS011;3089;48.202;11.510;2023-12-14T14:58:32;5.90;;;1.60;;
6117;SDS011;3089;48.202;11.510;2023-12-14T15:01:02;4.50;;;2.10;;
6117;SDS011;3089;48.202;11.510;2023-12-14T15:03:30;4.47;;;2.03;;
6117;SDS011;3089;48.202;11.510;2023-12-14T15:05:59;4.67;;;2.13;;
6117;SDS011;3089;48.202;11.510;2023-12-14T15:08:27;3.67;;;2.17;;
6117;SDS011;3089;48.202;11.510;2023-12-14T15:10:55;3.57;;;1.60;;